Jamestown, Virginia
Current Conditions -  °F | °C
As of 6:55 AM on Monday 24 Nov 2014 (Local Time) from KJGG Reporting Station
Scattered Clouds Scattered Clouds  
Wind Chill: 68°   Ceiling: Unl
Heat Index: 68°   Visibility: 10mi
Dew Point: 66°   Wind: 6mph
Humidity: 94%   Direction: 200°SSW
Pressure: 29.76"   Gusts: NA
Location:  37.21°N, 76.77°W
Report Text: KJGG 241155Z AUTO 20005KT 10SM SCT021 20/19 A2976 RMK AO1
Loading
Personal Weather Stations






























Interactive Weather Map New forecast layout! Learn more

10-Day Weather Forecast

Advertisements
Track Severe Weather on mobile